LEAB/ABC METAR and TAF weather

Enter ICAO airport designator
Station Type Date Time Source
LEAB METAR 2019/04/25 12:00 UTC NOAA

LEAB 251200Z 24009KT 190V270 5000 -DZ SCT012 BKN030 09/08 Q1015 NOSIG


Station Type Date Time Source
LEAB Decoded METAR 2019/04/25 12:00 UTC NOAA

Albacete / Los Llanos, Spain (LEAB) 38-57N 001-51W 704M
Apr 25, 2019 - 08:00 AM EDT / 2019.04.25 1200 UTC
Wind: from the WSW (240 degrees) at 10 MPH (9 KT) (direction variable):0
Visibility: 3 mile(s):0
Sky conditions: mostly cloudy
Weather: light drizzle
Temperature: 48 F (9 C)
Dew Point: 46 F (8 C)
Relative Humidity: 93%
Pressure (altimeter): 29.97 in. Hg (1015 hPa)
ob: LEAB 251200Z 24009KT 190V270 5000 -DZ SCT012 BKN030 09/08 Q1015 NOSIG
cycle: 12

Station Type Date Time Source
LEAB TAF 2018/04/26 18:51 UTC NOAA

TAF
AMD LEAB 261747Z 2618/2706 16012KT 9999 FEW040
BECMG 2704/2706 27015KT
TEMPO 2704/2706 BKN014

Example: see airport list